Terminal Aerodrome Forecast
Issued by NWS

Home | Current Version | Previous Version | Text Only | Print | Product List | Glossary On
Versions: 1 2 3 4 5 6 7 8 9 10 11 12 13 14 15 16 17 18 19 20 21 22 23 24 25 26 27 28 29 30 31 32 33 34 35 36 37 38 39 40 41 42 43 44 45
000
FTUS44 KHGX 040520
TAFSGR
TAF
KSGR 040520Z 0406/0506 17008KT P6SM SCT022
     FM041600 20006KT P6SM SCT030 BKN250
     FM041800 19008KT P6SM VCTS BKN040CB BKN250 PROB30 0419/0422
      VRB15G25KT -TSRA BKN035CB
     FM042200 17008KT P6SM SCT035 SCT110 BKN250
     FM050400 17004KT P6SM FEW025 BKN250=

USA.gov is the U.S. government's official web portal to all federal, state and local government web resources and services.